sensor_id;sensor_type;location;lat;lon;timestamp;P1;durP1;ratioP1;P2;durP2;ratioP2
30173;SDS011;16985;50.814;8.530;2022-09-17T00:01:01;9.48;;;5.07;;
30173;SDS011;16985;50.814;8.530;2022-09-17T00:03:28;8.47;;;4.53;;
30173;SDS011;16985;50.814;8.530;2022-09-17T00:06:02;6.63;;;4.72;;
30173;SDS011;16985;50.814;8.530;2022-09-17T00:08:31;12.98;;;4.82;;
30173;SDS011;16985;50.814;8.530;2022-09-17T00:11:04;13.23;;;4.80;;
30173;SDS011;16985;50.814;8.530;2022-09-17T00:13:40;10.57;;;4.60;;
30173;SDS011;16985;50.814;8.530;2022-09-17T00:16:07;5.77;;;4.30;;
30173;SDS011;16985;50.814;8.530;2022-09-17T00:18:33;8.48;;;5.43;;
30173;SDS011;16985;50.814;8.530;2022-09-17T00:21:01;11.32;;;5.10;;
30173;SDS011;16985;50.814;8.530;2022-09-17T00:23:27;11.95;;;5.22;;
30173;SDS011;16985;50.814;8.530;2022-09-17T00:25:53;10.80;;;5.03;;
30173;SDS011;16985;50.814;8.530;2022-09-17T00:28:19;17.88;;;5.18;;
30173;SDS011;16985;50.814;8.530;2022-09-17T00:30:45;10.75;;;5.07;;
30173;SDS011;16985;50.814;8.530;2022-09-17T00:33:12;8.27;;;4.78;;
30173;SDS011;16985;50.814;8.530;2022-09-17T00:38:05;8.98;;;5.07;;
30173;SDS011;16985;50.814;8.530;2022-09-17T00:40:31;11.88;;;5.43;;
30173;SDS011;16985;50.814;8.530;2022-09-17T00:42:58;7.88;;;5.60;;
30173;SDS011;16985;50.814;8.530;2022-09-17T00:45:24;7.07;;;5.28;;
30173;SDS011;16985;50.814;8.530;2022-09-17T00:47:58;9.55;;;5.25;;
30173;SDS011;16985;50.814;8.530;2022-09-17T00:53:05;10.82;;;5.30;;
30173;SDS011;16985;50.814;8.530;2022-09-17T00:55:36;11.77;;;5.55;;
30173;SDS011;16985;50.814;8.530;2022-09-17T00:58:10;12.48;;;5.80;;
30173;SDS011;16985;50.814;8.530;2022-09-17T01:00:37;12.20;;;6.05;;
30173;SDS011;16985;50.814;8.530;2022-09-17T01:03:03;12.43;;;6.78;;
30173;SDS011;16985;50.814;8.530;2022-09-17T01:05:32;8.40;;;6.18;;
30173;SDS011;16985;50.814;8.530;2022-09-17T01:19:31;8.77;;;6.30;;
30173;SDS011;16985;50.814;8.530;2022-09-17T01:22:07;9.43;;;4.90;;
30173;SDS011;16985;50.814;8.530;2022-09-17T01:30:26;6.22;;;4.78;;
30173;SDS011;16985;50.814;8.530;2022-09-17T01:33:18;7.80;;;4.63;;
30173;SDS011;16985;50.814;8.530;2022-09-17T01:45:14;6.37;;;3.77;;
30173;SDS011;16985;50.814;8.530;2022-09-17T01:48:09;7.30;;;3.67;;
30173;SDS011;16985;50.814;8.530;2022-09-17T01:50:55;4.07;;;3.03;;
30173;SDS011;16985;50.814;8.530;2022-09-17T01:53:30;7.45;;;3.70;;
30173;SDS011;16985;50.814;8.530;2022-09-17T01:56:03;6.93;;;3.47;;
30173;SDS011;16985;50.814;8.530;2022-09-17T01:58:32;4.97;;;3.40;;
30173;SDS011;16985;50.814;8.530;2022-09-17T02:01:06;3.85;;;3.20;;
30173;SDS011;16985;50.814;8.530;2022-09-17T02:03:35;6.13;;;3.20;;
30173;SDS011;16985;50.814;8.530;2022-09-17T02:06:10;3.55;;;2.50;;
30173;SDS011;16985;50.814;8.530;2022-09-17T02:08:51;5.93;;;3.10;;
30173;SDS011;16985;50.814;8.530;2022-09-17T02:11:22;3.92;;;2.85;;
30173;SDS011;16985;50.814;8.530;2022-09-17T02:16:47;4.30;;;2.40;;
30173;SDS011;16985;50.814;8.530;2022-09-17T02:19:26;3.33;;;3.00;;
30173;SDS011;16985;50.814;8.530;2022-09-17T02:25:03;4.90;;;2.95;;
30173;SDS011;16985;50.814;8.530;2022-09-17T02:28:03;4.75;;;3.00;;
30173;SDS011;16985;50.814;8.530;2022-09-17T02:30:41;6.40;;;3.42;;
30173;SDS011;16985;50.814;8.530;2022-09-17T02:33:08;4.55;;;3.20;;
30173;SDS011;16985;50.814;8.530;2022-09-17T02:35:39;5.50;;;3.63;;
30173;SDS011;16985;50.814;8.530;2022-09-17T02:38:07;9.18;;;4.03;;
30173;SDS011;16985;50.814;8.530;2022-09-17T02:40:34;6.30;;;4.03;;
30173;SDS011;16985;50.814;8.530;2022-09-17T02:43:34;5.00;;;3.80;;
30173;SDS011;16985;50.814;8.530;2022-09-17T02:48:59;6.53;;;4.03;;
30173;SDS011;16985;50.814;8.530;2022-09-17T02:55:17;7.25;;;4.97;;
30173;SDS011;16985;50.814;8.530;2022-09-17T03:00:40;13.27;;;6.70;;
30173;SDS011;16985;50.814;8.530;2022-09-17T03:03:19;12.25;;;5.63;;
30173;SDS011;16985;50.814;8.530;2022-09-17T03:05:53;11.52;;;6.32;;
30173;SDS011;16985;50.814;8.530;2022-09-17T03:08:26;12.25;;;5.72;;
30173;SDS011;16985;50.814;8.530;2022-09-17T03:11:05;8.68;;;5.50;;
30173;SDS011;16985;50.814;8.530;2022-09-17T03:13:33;11.40;;;5.75;;
30173;SDS011;16985;50.814;8.530;2022-09-17T03:16:03;11.73;;;6.15;;
30173;SDS011;16985;50.814;8.530;2022-09-17T03:18:30;7.32;;;5.43;;
30173;SDS011;16985;50.814;8.530;2022-09-17T03:20:56;10.18;;;5.53;;
30173;SDS011;16985;50.814;8.530;2022-09-17T03:23:22;12.70;;;6.20;;
30173;SDS011;16985;50.814;8.530;2022-09-17T03:25:48;11.57;;;6.20;;
30173;SDS011;16985;50.814;8.530;2022-09-17T03:28:14;18.85;;;7.28;;
30173;SDS011;16985;50.814;8.530;2022-09-17T03:30:44;14.13;;;6.15;;
30173;SDS011;16985;50.814;8.530;2022-09-17T03:33:10;14.30;;;6.00;;
30173;SDS011;16985;50.814;8.530;2022-09-17T03:35:36;13.63;;;6.15;;
30173;SDS011;16985;50.814;8.530;2022-09-17T03:38:02;16.55;;;6.38;;
30173;SDS011;16985;50.814;8.530;2022-09-17T03:40:28;17.13;;;5.97;;
30173;SDS011;16985;50.814;8.530;2022-09-17T03:42:54;16.15;;;7.45;;
30173;SDS011;16985;50.814;8.530;2022-09-17T03:45:20;16.98;;;6.35;;
30173;SDS011;16985;50.814;8.530;2022-09-17T03:47:46;14.82;;;6.13;;
30173;SDS011;16985;50.814;8.530;2022-09-17T03:50:11;14.65;;;6.18;;
30173;SDS011;16985;50.814;8.530;2022-09-17T03:52:37;14.90;;;5.90;;
30173;SDS011;16985;50.814;8.530;2022-09-17T03:55:03;18.73;;;6.47;;
30173;SDS011;16985;50.814;8.530;2022-09-17T03:57:29;14.23;;;6.55;;
30173;SDS011;16985;50.814;8.530;2022-09-17T03:59:55;10.43;;;5.18;;
30173;SDS011;16985;50.814;8.530;2022-09-17T04:02:21;17.98;;;6.95;;
30173;SDS011;16985;50.814;8.530;2022-09-17T04:04:47;15.07;;;5.43;;
30173;SDS011;16985;50.814;8.530;2022-09-17T04:07:12;16.80;;;5.50;;
30173;SDS011;16985;50.814;8.530;2022-09-17T04:09:38;24.13;;;7.03;;
30173;SDS011;16985;50.814;8.530;2022-09-17T04:12:04;18.00;;;5.88;;
30173;SDS011;16985;50.814;8.530;2022-09-17T04:14:30;13.85;;;6.18;;
30173;SDS011;16985;50.814;8.530;2022-09-17T04:16:56;13.27;;;5.47;;
30173;SDS011;16985;50.814;8.530;2022-09-17T04:19:23;17.02;;;5.63;;
30173;SDS011;16985;50.814;8.530;2022-09-17T04:21:48;22.85;;;7.28;;
30173;SDS011;16985;50.814;8.530;2022-09-17T04:24:14;19.63;;;6.43;;
30173;SDS011;16985;50.814;8.530;2022-09-17T04:26:40;16.00;;;6.53;;
30173;SDS011;16985;50.814;8.530;2022-09-17T04:29:06;20.38;;;7.90;;
30173;SDS011;16985;50.814;8.530;2022-09-17T04:31:34;20.70;;;5.80;;
30173;SDS011;16985;50.814;8.530;2022-09-17T04:34:00;12.52;;;6.45;;
30173;SDS011;16985;50.814;8.530;2022-09-17T04:36:26;14.52;;;6.18;;
30173;SDS011;16985;50.814;8.530;2022-09-17T04:38:51;20.73;;;6.53;;
30173;SDS011;16985;50.814;8.530;2022-09-17T04:41:17;24.95;;;6.63;;
30173;SDS011;16985;50.814;8.530;2022-09-17T04:43:43;22.40;;;6.40;;
30173;SDS011;16985;50.814;8.530;2022-09-17T04:46:09;22.17;;;7.63;;
30173;SDS011;16985;50.814;8.530;2022-09-17T04:48:35;28.70;;;7.95;;
30173;SDS011;16985;50.814;8.530;2022-09-17T04:51:02;31.15;;;7.90;;
30173;SDS011;16985;50.814;8.530;2022-09-17T04:53:27;20.77;;;7.85;;
30173;SDS011;16985;50.814;8.530;2022-09-17T04:55:53;20.40;;;7.55;;
30173;SDS011;16985;50.814;8.530;2022-09-17T04:58:19;25.83;;;7.72;;
30173;SDS011;16985;50.814;8.530;2022-09-17T05:00:45;14.57;;;6.65;;
30173;SDS011;16985;50.814;8.530;2022-09-17T05:03:10;16.85;;;7.25;;
30173;SDS011;16985;50.814;8.530;2022-09-17T05:05:36;22.95;;;8.23;;
30173;SDS011;16985;50.814;8.530;2022-09-17T05:08:02;19.30;;;8.02;;
30173;SDS011;16985;50.814;8.530;2022-09-17T05:10:28;14.38;;;7.38;;
30173;SDS011;16985;50.814;8.530;2022-09-17T05:12:54;16.30;;;8.07;;
30173;SDS011;16985;50.814;8.530;2022-09-17T05:15:21;17.45;;;7.15;;
30173;SDS011;16985;50.814;8.530;2022-09-17T05:17:48;27.00;;;8.53;;
30173;SDS011;16985;50.814;8.530;2022-09-17T05:20:14;16.13;;;7.60;;
30173;SDS011;16985;50.814;8.530;2022-09-17T05:22:45;22.38;;;7.93;;
30173;SDS011;16985;50.814;8.530;2022-09-17T05:25:14;20.23;;;8.07;;
30173;SDS011;16985;50.814;8.530;2022-09-17T05:27:41;16.92;;;7.70;;
30173;SDS011;16985;50.814;8.530;2022-09-17T05:30:08;21.38;;;8.20;;
30173;SDS011;16985;50.814;8.530;2022-09-17T05:32:35;22.83;;;8.40;;
30173;SDS011;16985;50.814;8.530;2022-09-17T05:35:02;24.48;;;8.15;;
30173;SDS011;16985;50.814;8.530;2022-09-17T05:37:28;23.38;;;9.60;;
30173;SDS011;16985;50.814;8.530;2022-09-17T05:39:54;24.10;;;9.35;;
30173;SDS011;16985;50.814;8.530;2022-09-17T05:42:20;26.02;;;9.32;;
30173;SDS011;16985;50.814;8.530;2022-09-17T05:44:46;20.88;;;9.23;;
30173;SDS011;16985;50.814;8.530;2022-09-17T05:47:11;17.75;;;7.68;;
30173;SDS011;16985;50.814;8.530;2022-09-17T05:49:37;20.45;;;9.90;;
30173;SDS011;16985;50.814;8.530;2022-09-17T05:52:03;23.92;;;9.77;;
30173;SDS011;16985;50.814;8.530;2022-09-17T05:54:29;19.40;;;8.52;;
30173;SDS011;16985;50.814;8.530;2022-09-17T05:56:55;17.30;;;9.43;;
30173;SDS011;16985;50.814;8.530;2022-09-17T05:59:20;26.08;;;10.25;;
30173;SDS011;16985;50.814;8.530;2022-09-17T06:01:46;30.67;;;10.82;;
30173;SDS011;16985;50.814;8.530;2022-09-17T06:04:12;24.83;;;8.63;;
30173;SDS011;16985;50.814;8.530;2022-09-17T06:06:38;16.83;;;8.55;;
30173;SDS011;16985;50.814;8.530;2022-09-17T06:09:05;18.23;;;9.15;;
30173;SDS011;16985;50.814;8.530;2022-09-17T06:11:35;22.52;;;8.75;;
30173;SDS011;16985;50.814;8.530;2022-09-17T06:14:02;20.17;;;8.02;;
30173;SDS011;16985;50.814;8.530;2022-09-17T06:16:28;27.23;;;7.78;;
30173;SDS011;16985;50.814;8.530;2022-09-17T06:18:54;24.70;;;8.15;;
30173;SDS011;16985;50.814;8.530;2022-09-17T06:21:20;24.63;;;8.82;;
30173;SDS011;16985;50.814;8.530;2022-09-17T06:23:48;22.75;;;8.70;;
30173;SDS011;16985;50.814;8.530;2022-09-17T06:26:14;22.35;;;8.43;;
30173;SDS011;16985;50.814;8.530;2022-09-17T06:28:41;18.60;;;7.38;;
30173;SDS011;16985;50.814;8.530;2022-09-17T06:31:08;20.38;;;7.65;;
30173;SDS011;16985;50.814;8.530;2022-09-17T06:33:35;21.55;;;8.02;;
30173;SDS011;16985;50.814;8.530;2022-09-17T06:36:05;16.30;;;7.60;;
30173;SDS011;16985;50.814;8.530;2022-09-17T06:38:34;16.65;;;7.25;;
30173;SDS011;16985;50.814;8.530;2022-09-17T06:41:00;23.55;;;8.85;;
30173;SDS011;16985;50.814;8.530;2022-09-17T06:43:27;19.13;;;8.85;;
30173;SDS011;16985;50.814;8.530;2022-09-17T06:45:54;13.93;;;7.00;;
30173;SDS011;16985;50.814;8.530;2022-09-17T06:48:22;20.05;;;8.23;;
30173;SDS011;16985;50.814;8.530;2022-09-17T06:50:49;31.58;;;9.85;;
30173;SDS011;16985;50.814;8.530;2022-09-17T06:53:18;21.42;;;9.10;;
30173;SDS011;16985;50.814;8.530;2022-09-17T06:55:47;22.45;;;8.52;;
30173;SDS011;16985;50.814;8.530;2022-09-17T06:58:13;26.45;;;8.32;;
30173;SDS011;16985;50.814;8.530;2022-09-17T07:00:40;19.92;;;8.48;;
30173;SDS011;16985;50.814;8.530;2022-09-17T07:03:07;16.73;;;7.30;;
30173;SDS011;16985;50.814;8.530;2022-09-17T07:05:33;21.33;;;8.20;;
30173;SDS011;16985;50.814;8.530;2022-09-17T07:08:00;22.92;;;8.95;;
30173;SDS011;16985;50.814;8.530;2022-09-17T07:10:29;17.30;;;7.97;;
30173;SDS011;16985;50.814;8.530;2022-09-17T07:12:56;20.52;;;8.20;;
30173;SDS011;16985;50.814;8.530;2022-09-17T07:15:22;16.08;;;7.20;;
30173;SDS011;16985;50.814;8.530;2022-09-17T07:17:48;22.85;;;9.27;;
30173;SDS011;16985;50.814;8.530;2022-09-17T07:20:15;13.70;;;7.75;;
30173;SDS011;16985;50.814;8.530;2022-09-17T07:22:41;22.65;;;8.43;;
30173;SDS011;16985;50.814;8.530;2022-09-17T07:25:07;22.15;;;7.32;;
30173;SDS011;16985;50.814;8.530;2022-09-17T07:27:33;27.15;;;9.43;;
30173;SDS011;16985;50.814;8.530;2022-09-17T07:29:59;11.30;;;6.60;;
30173;SDS011;16985;50.814;8.530;2022-09-17T07:32:25;15.93;;;7.50;;
30173;SDS011;16985;50.814;8.530;2022-09-17T07:34:53;18.45;;;8.68;;
30173;SDS011;16985;50.814;8.530;2022-09-17T07:37:19;19.05;;;8.35;;
30173;SDS011;16985;50.814;8.530;2022-09-17T07:39:45;19.45;;;7.63;;
30173;SDS011;16985;50.814;8.530;2022-09-17T07:42:11;16.13;;;8.00;;
30173;SDS011;16985;50.814;8.530;2022-09-17T07:44:39;14.52;;;7.45;;
30173;SDS011;16985;50.814;8.530;2022-09-17T07:47:08;18.73;;;8.30;;
30173;SDS011;16985;50.814;8.530;2022-09-17T07:49:34;22.15;;;8.85;;
30173;SDS011;16985;50.814;8.530;2022-09-17T07:51:59;19.23;;;7.45;;
30173;SDS011;16985;50.814;8.530;2022-09-17T07:54:30;21.85;;;8.18;;
30173;SDS011;16985;50.814;8.530;2022-09-17T07:56:59;23.80;;;7.70;;
30173;SDS011;16985;50.814;8.530;2022-09-17T07:59:25;14.75;;;6.93;;
30173;SDS011;16985;50.814;8.530;2022-09-17T08:01:51;20.42;;;7.57;;
30173;SDS011;16985;50.814;8.530;2022-09-17T08:04:16;23.67;;;7.95;;
30173;SDS011;16985;50.814;8.530;2022-09-17T08:06:42;17.77;;;7.45;;
30173;SDS011;16985;50.814;8.530;2022-09-17T08:09:12;20.85;;;6.88;;
30173;SDS011;16985;50.814;8.530;2022-09-17T08:11:39;19.92;;;7.80;;
30173;SDS011;16985;50.814;8.530;2022-09-17T08:14:08;19.05;;;6.95;;
30173;SDS011;16985;50.814;8.530;2022-09-17T08:16:36;16.50;;;7.70;;
30173;SDS011;16985;50.814;8.530;2022-09-17T08:19:02;16.73;;;5.68;;
30173;SDS011;16985;50.814;8.530;2022-09-17T08:21:28;14.02;;;5.72;;
30173;SDS011;16985;50.814;8.530;2022-09-17T08:23:54;16.45;;;5.88;;
30173;SDS011;16985;50.814;8.530;2022-09-17T08:26:20;24.33;;;6.60;;
30173;SDS011;16985;50.814;8.530;2022-09-17T08:28:48;13.70;;;5.23;;
30173;SDS011;16985;50.814;8.530;2022-09-17T08:31:16;10.35;;;5.45;;
30173;SDS011;16985;50.814;8.530;2022-09-17T08:33:44;12.35;;;5.45;;
30173;SDS011;16985;50.814;8.530;2022-09-17T08:36:11;11.20;;;4.82;;
30173;SDS011;16985;50.814;8.530;2022-09-17T08:38:40;12.50;;;5.53;;
30173;SDS011;16985;50.814;8.530;2022-09-17T08:43:40;12.15;;;4.82;;
30173;SDS011;16985;50.814;8.530;2022-09-17T08:46:13;13.30;;;5.63;;
30173;SDS011;16985;50.814;8.530;2022-09-17T08:48:44;13.75;;;4.15;;
30173;SDS011;16985;50.814;8.530;2022-09-17T08:54:11;9.45;;;3.83;;
30173;SDS011;16985;50.814;8.530;2022-09-17T08:56:53;11.45;;;4.18;;
30173;SDS011;16985;50.814;8.530;2022-09-17T08:59:35;6.68;;;3.65;;
30173;SDS011;16985;50.814;8.530;2022-09-17T09:05:34;10.60;;;4.03;;
30173;SDS011;16985;50.814;8.530;2022-09-17T09:08:27;9.75;;;3.53;;
30173;SDS011;16985;50.814;8.530;2022-09-17T09:11:14;6.32;;;3.15;;
30173;SDS011;16985;50.814;8.530;2022-09-17T09:13:52;12.85;;;3.28;;
30173;SDS011;16985;50.814;8.530;2022-09-17T09:16:54;8.07;;;2.92;;
30173;SDS011;16985;50.814;8.530;2022-09-17T09:19:25;7.72;;;2.65;;
30173;SDS011;16985;50.814;8.530;2022-09-17T09:22:00;7.72;;;2.60;;
30173;SDS011;16985;50.814;8.530;2022-09-17T09:24:33;12.18;;;2.92;;
30173;SDS011;16985;50.814;8.530;2022-09-17T09:27:03;8.05;;;2.70;;
30173;SDS011;16985;50.814;8.530;2022-09-17T09:30:00;7.03;;;2.42;;
30173;SDS011;16985;50.814;8.530;2022-09-17T09:37:45;7.13;;;2.75;;
30173;SDS011;16985;50.814;8.530;2022-09-17T09:51:53;13.30;;;3.15;;
30173;SDS011;16985;50.814;8.530;2022-09-17T09:55:45;10.98;;;2.95;;
30173;SDS011;16985;50.814;8.530;2022-09-17T10:00:58;12.80;;;3.05;;
30173;SDS011;16985;50.814;8.530;2022-09-17T10:03:28;8.18;;;2.38;;
30173;SDS011;16985;50.814;8.530;2022-09-17T10:05:57;12.15;;;2.80;;
30173;SDS011;16985;50.814;8.530;2022-09-17T10:08:29;5.25;;;2.28;;
30173;SDS011;16985;50.814;8.530;2022-09-17T10:11:05;6.18;;;2.22;;
30173;SDS011;16985;50.814;8.530;2022-09-17T10:13:37;5.75;;;1.85;;
30173;SDS011;16985;50.814;8.530;2022-09-17T10:18:44;9.98;;;2.30;;
30173;SDS011;16985;50.814;8.530;2022-09-17T10:21:21;8.98;;;2.47;;
30173;SDS011;16985;50.814;8.530;2022-09-17T10:23:56;10.48;;;2.83;;
30173;SDS011;16985;50.814;8.530;2022-09-17T10:26:32;4.90;;;1.73;;
30173;SDS011;16985;50.814;8.530;2022-09-17T10:29:04;7.70;;;2.63;;
30173;SDS011;16985;50.814;8.530;2022-09-17T10:34:18;7.68;;;2.10;;
30173;SDS011;16985;50.814;8.530;2022-09-17T10:36:45;4.78;;;1.95;;
30173;SDS011;16985;50.814;8.530;2022-09-17T10:47:32;11.63;;;2.08;;
30173;SDS011;16985;50.814;8.530;2022-09-17T10:50:06;8.80;;;1.80;;
30173;SDS011;16985;50.814;8.530;2022-09-17T11:07:24;5.50;;;1.88;;
30173;SDS011;16985;50.814;8.530;2022-09-17T11:16:05;3.83;;;1.25;;
30173;SDS011;16985;50.814;8.530;2022-09-17T11:18:42;3.80;;;1.57;;
30173;SDS011;16985;50.814;8.530;2022-09-17T11:24:50;8.05;;;1.77;;
30173;SDS011;16985;50.814;8.530;2022-09-17T11:37:21;4.72;;;1.67;;
30173;SDS011;16985;50.814;8.530;2022-09-17T11:45:38;5.00;;;1.10;;
30173;SDS011;16985;50.814;8.530;2022-09-17T11:48:20;3.85;;;1.42;;
30173;SDS011;16985;50.814;8.530;2022-09-17T11:50:56;7.57;;;1.33;;
30173;SDS011;16985;50.814;8.530;2022-09-17T11:53:30;7.03;;;1.23;;
30173;SDS011;16985;50.814;8.530;2022-09-17T11:56:24;4.10;;;1.20;;
30173;SDS011;16985;50.814;8.530;2022-09-17T11:59:24;2.92;;;1.05;;
30173;SDS011;16985;50.814;8.530;2022-09-17T12:02:00;4.85;;;1.40;;
30173;SDS011;16985;50.814;8.530;2022-09-17T12:04:40;3.65;;;1.55;;
30173;SDS011;16985;50.814;8.530;2022-09-17T12:07:40;3.00;;;1.10;;
30173;SDS011;16985;50.814;8.530;2022-09-17T12:13:12;4.10;;;1.42;;
30173;SDS011;16985;50.814;8.530;2022-09-17T12:22:03;2.38;;;1.20;;
30173;SDS011;16985;50.814;8.530;2022-09-17T12:24:43;2.95;;;1.08;;
30173;SDS011;16985;50.814;8.530;2022-09-17T12:30:22;9.07;;;1.75;;
30173;SDS011;16985;50.814;8.530;2022-09-17T12:42:41;3.50;;;1.00;;
30173;SDS011;16985;50.814;8.530;2022-09-17T12:47:47;1.95;;;1.00;;
30173;SDS011;16985;50.814;8.530;2022-09-17T12:50:49;4.57;;;1.27;;
30173;SDS011;16985;50.814;8.530;2022-09-17T12:59:25;4.88;;;1.23;;
30173;SDS011;16985;50.814;8.530;2022-09-17T13:04:50;4.03;;;0.70;;
30173;SDS011;16985;50.814;8.530;2022-09-17T13:08:27;4.40;;;1.02;;
30173;SDS011;16985;50.814;8.530;2022-09-17T13:14:14;1.33;;;0.80;;
30173;SDS011;16985;50.814;8.530;2022-09-17T13:17:06;1.65;;;1.00;;
30173;SDS011;16985;50.814;8.530;2022-09-17T13:19:49;5.22;;;1.10;;
30173;SDS011;16985;50.814;8.530;2022-09-17T13:22:31;3.70;;;0.98;;
30173;SDS011;16985;50.814;8.530;2022-09-17T13:25:21;2.05;;;0.90;;
30173;SDS011;16985;50.814;8.530;2022-09-17T13:27:49;1.42;;;0.88;;
30173;SDS011;16985;50.814;8.530;2022-09-17T13:42:21;4.60;;;0.80;;
30173;SDS011;16985;50.814;8.530;2022-09-17T13:45:11;2.33;;;0.80;;
30173;SDS011;16985;50.814;8.530;2022-09-17T13:50:29;5.78;;;1.17;;
30173;SDS011;16985;50.814;8.530;2022-09-17T14:00:59;2.50;;;0.70;;
30173;SDS011;16985;50.814;8.530;2022-09-17T14:13:48;5.13;;;1.00;;
30173;SDS011;16985;50.814;8.530;2022-09-17T14:16:24;2.13;;;0.70;;
30173;SDS011;16985;50.814;8.530;2022-09-17T14:18:58;1.35;;;0.70;;
30173;SDS011;16985;50.814;8.530;2022-09-17T14:21:43;4.00;;;0.80;;
30173;SDS011;16985;50.814;8.530;2022-09-17T14:24:31;4.57;;;1.25;;
30173;SDS011;16985;50.814;8.530;2022-09-17T14:30:22;2.50;;;0.82;;
30173;SDS011;16985;50.814;8.530;2022-09-17T14:35:30;1.92;;;0.65;;
30173;SDS011;16985;50.814;8.530;2022-09-17T14:38:50;2.55;;;0.60;;
30173;SDS011;16985;50.814;8.530;2022-09-17T14:46:22;4.45;;;0.82;;
30173;SDS011;16985;50.814;8.530;2022-09-17T14:48:55;3.08;;;0.77;;
30173;SDS011;16985;50.814;8.530;2022-09-17T14:51:57;1.42;;;0.60;;
30173;SDS011;16985;50.814;8.530;2022-09-17T14:54:24;1.50;;;0.77;;
30173;SDS011;16985;50.814;8.530;2022-09-17T15:07:47;1.42;;;0.68;;
30173;SDS011;16985;50.814;8.530;2022-09-17T15:10:19;7.47;;;1.08;;
30173;SDS011;16985;50.814;8.530;2022-09-17T15:12:47;1.92;;;0.90;;
30173;SDS011;16985;50.814;8.530;2022-09-17T15:15:21;3.00;;;1.35;;
30173;SDS011;16985;50.814;8.530;2022-09-17T15:17:50;1.40;;;0.77;;
30173;SDS011;16985;50.814;8.530;2022-09-17T15:20:22;5.55;;;0.93;;
30173;SDS011;16985;50.814;8.530;2022-09-17T15:22:55;1.98;;;1.25;;
30173;SDS011;16985;50.814;8.530;2022-09-17T15:25:44;3.50;;;0.90;;
30173;SDS011;16985;50.814;8.530;2022-09-17T15:28:18;2.13;;;0.82;;
30173;SDS011;16985;50.814;8.530;2022-09-17T15:30:53;6.03;;;1.00;;
30173;SDS011;16985;50.814;8.530;2022-09-17T15:33:26;2.53;;;0.90;;
30173;SDS011;16985;50.814;8.530;2022-09-17T15:35:57;6.20;;;1.50;;
30173;SDS011;16985;50.814;8.530;2022-09-17T15:38:35;2.28;;;0.90;;
30173;SDS011;16985;50.814;8.530;2022-09-17T15:44:11;2.92;;;1.00;;
30173;SDS011;16985;50.814;8.530;2022-09-17T15:46:45;5.88;;;1.48;;
30173;SDS011;16985;50.814;8.530;2022-09-17T15:55:04;2.80;;;1.45;;
30173;SDS011;16985;50.814;8.530;2022-09-17T15:57:50;1.98;;;1.00;;
30173;SDS011;16985;50.814;8.530;2022-09-17T16:00:16;2.70;;;0.85;;
30173;SDS011;16985;50.814;8.530;2022-09-17T16:02:47;3.47;;;1.08;;
30173;SDS011;16985;50.814;8.530;2022-09-17T16:07:43;1.85;;;0.93;;
30173;SDS011;16985;50.814;8.530;2022-09-17T16:10:11;1.50;;;1.23;;
30173;SDS011;16985;50.814;8.530;2022-09-17T16:12:39;2.65;;;1.40;;
30173;SDS011;16985;50.814;8.530;2022-09-17T16:15:06;1.98;;;0.90;;
30173;SDS011;16985;50.814;8.530;2022-09-17T16:20:23;2.92;;;1.48;;
30173;SDS011;16985;50.814;8.530;2022-09-17T16:22:49;6.28;;;1.30;;
30173;SDS011;16985;50.814;8.530;2022-09-17T16:25:18;2.55;;;1.20;;
30173;SDS011;16985;50.814;8.530;2022-09-17T16:30:21;2.42;;;1.02;;
30173;SDS011;16985;50.814;8.530;2022-09-17T16:32:49;2.38;;;1.10;;
30173;SDS011;16985;50.814;8.530;2022-09-17T16:35:20;2.75;;;1.10;;
30173;SDS011;16985;50.814;8.530;2022-09-17T16:37:52;3.97;;;1.35;;
30173;SDS011;16985;50.814;8.530;2022-09-17T16:42:48;1.55;;;0.90;;
30173;SDS011;16985;50.814;8.530;2022-09-17T16:45:20;4.20;;;1.27;;
30173;SDS011;16985;50.814;8.530;2022-09-17T16:47:46;4.60;;;1.38;;
30173;SDS011;16985;50.814;8.530;2022-09-17T16:50:13;3.70;;;1.17;;
30173;SDS011;16985;50.814;8.530;2022-09-17T16:52:41;4.28;;;1.27;;
30173;SDS011;16985;50.814;8.530;2022-09-17T16:55:09;3.20;;;1.00;;
30173;SDS011;16985;50.814;8.530;2022-09-17T16:57:37;2.15;;;0.98;;
30173;SDS011;16985;50.814;8.530;2022-09-17T17:00:06;2.60;;;1.15;;
30173;SDS011;16985;50.814;8.530;2022-09-17T17:02:39;2.08;;;1.10;;
30173;SDS011;16985;50.814;8.530;2022-09-17T17:05:06;2.13;;;1.05;;
30173;SDS011;16985;50.814;8.530;2022-09-17T17:07:33;8.18;;;2.17;;
30173;SDS011;16985;50.814;8.530;2022-09-17T17:10:00;3.42;;;1.45;;
30173;SDS011;16985;50.814;8.530;2022-09-17T17:12:28;5.15;;;2.55;;
30173;SDS011;16985;50.814;8.530;2022-09-17T17:14:56;6.78;;;2.25;;
30173;SDS011;16985;50.814;8.530;2022-09-17T17:17:22;6.97;;;2.42;;
30173;SDS011;16985;50.814;8.530;2022-09-17T17:19:47;6.63;;;2.92;;
30173;SDS011;16985;50.814;8.530;2022-09-17T17:22:13;4.57;;;2.58;;
30173;SDS011;16985;50.814;8.530;2022-09-17T17:24:40;9.00;;;2.50;;
30173;SDS011;16985;50.814;8.530;2022-09-17T17:27:06;3.95;;;2.30;;
30173;SDS011;16985;50.814;8.530;2022-09-17T17:29:36;5.20;;;2.22;;
30173;SDS011;16985;50.814;8.530;2022-09-17T17:32:03;5.20;;;1.83;;
30173;SDS011;16985;50.814;8.530;2022-09-17T17:34:29;2.72;;;1.60;;
30173;SDS011;16985;50.814;8.530;2022-09-17T17:36:56;6.68;;;1.98;;
30173;SDS011;16985;50.814;8.530;2022-09-17T17:39:22;6.72;;;2.25;;
30173;SDS011;16985;50.814;8.530;2022-09-17T17:41:49;9.13;;;1.70;;
30173;SDS011;16985;50.814;8.530;2022-09-17T17:44:19;8.40;;;2.63;;
30173;SDS011;16985;50.814;8.530;2022-09-17T17:46:44;4.40;;;1.77;;
30173;SDS011;16985;50.814;8.530;2022-09-17T17:49:10;4.82;;;1.67;;
30173;SDS011;16985;50.814;8.530;2022-09-17T17:51:36;3.03;;;1.65;;
30173;SDS011;16985;50.814;8.530;2022-09-17T17:54:02;2.78;;;1.23;;
30173;SDS011;16985;50.814;8.530;2022-09-17T17:56:28;3.35;;;1.77;;
30173;SDS011;16985;50.814;8.530;2022-09-17T17:58:54;3.70;;;1.60;;
30173;SDS011;16985;50.814;8.530;2022-09-17T18:01:31;6.10;;;2.22;;
30173;SDS011;16985;50.814;8.530;2022-09-17T18:04:00;5.75;;;1.88;;
30173;SDS011;16985;50.814;8.530;2022-09-17T18:06:28;2.30;;;1.45;;
30173;SDS011;16985;50.814;8.530;2022-09-17T18:08:54;2.47;;;1.58;;
30173;SDS011;16985;50.814;8.530;2022-09-17T18:11:20;7.88;;;2.28;;
30173;SDS011;16985;50.814;8.530;2022-09-17T18:13:53;2.65;;;1.48;;
30173;SDS011;16985;50.814;8.530;2022-09-17T18:16:20;5.55;;;1.58;;
30173;SDS011;16985;50.814;8.530;2022-09-17T18:18:47;5.20;;;1.80;;
30173;SDS011;16985;50.814;8.530;2022-09-17T18:21:14;8.50;;;2.28;;
30173;SDS011;16985;50.814;8.530;2022-09-17T18:23:46;5.38;;;2.10;;
30173;SDS011;16985;50.814;8.530;2022-09-17T18:26:16;8.88;;;2.63;;
30173;SDS011;16985;50.814;8.530;2022-09-17T18:28:45;7.95;;;2.00;;
30173;SDS011;16985;50.814;8.530;2022-09-17T18:36:24;6.55;;;1.60;;
30173;SDS011;16985;50.814;8.530;2022-09-17T18:38:55;9.65;;;2.10;;
30173;SDS011;16985;50.814;8.530;2022-09-17T18:41:26;5.72;;;1.70;;
30173;SDS011;16985;50.814;8.530;2022-09-17T18:43:53;8.67;;;1.90;;
30173;SDS011;16985;50.814;8.530;2022-09-17T18:46:19;6.63;;;2.00;;
30173;SDS011;16985;50.814;8.530;2022-09-17T18:48:45;6.28;;;1.90;;
30173;SDS011;16985;50.814;8.530;2022-09-17T18:51:20;7.93;;;1.70;;
30173;SDS011;16985;50.814;8.530;2022-09-17T18:53:46;7.68;;;1.85;;
30173;SDS011;16985;50.814;8.530;2022-09-17T18:58:46;4.22;;;1.55;;
30173;SDS011;16985;50.814;8.530;2022-09-17T19:01:14;4.60;;;1.65;;
30173;SDS011;16985;50.814;8.530;2022-09-17T19:03:41;2.33;;;1.38;;
30173;SDS011;16985;50.814;8.530;2022-09-17T19:06:07;15.93;;;2.33;;
30173;SDS011;16985;50.814;8.530;2022-09-17T19:08:36;10.88;;;3.13;;
30173;SDS011;16985;50.814;8.530;2022-09-17T19:11:02;7.38;;;3.05;;